createdAt,value
2022-11-26T00:09:30.000Z,992.1
2022-11-26T00:24:00.783Z,992.3
2022-11-26T00:38:31.754Z,992.5
2022-11-26T00:53:04.725Z,992.6
2022-11-26T01:07:31.299Z,992.8
2022-11-26T01:22:03.107Z,992.9
2022-11-26T01:36:33.344Z,993.1
2022-11-26T01:51:03.945Z,993.2
2022-11-26T02:05:34.268Z,993.4
2022-11-26T02:20:04.986Z,993.4
2022-11-26T02:34:38.510Z,993.5
2022-11-26T02:49:06.991Z,993.5
2022-11-26T03:03:38.032Z,993.5
2022-11-26T03:18:13.351Z,993.4
2022-11-26T03:32:40.067Z,993.4
2022-11-26T03:47:09.656Z,993.4
2022-11-26T04:01:38.155Z,993.5
2022-11-26T04:16:08.259Z,993.8
2022-11-26T04:30:39.445Z,994
2022-11-26T04:45:09.022Z,994.1
2022-11-26T04:59:40.176Z,994.5
2022-11-26T05:14:10.811Z,994.5
2022-11-26T05:28:40.833Z,994.6
2022-11-26T05:43:11.456Z,994.8
2022-11-26T05:57:41.286Z,994.9
2022-11-26T06:12:11.146Z,994.9
2022-11-26T06:26:43.428Z,995
2022-11-26T06:41:10.789Z,995.1
2022-11-26T06:55:40.901Z,995.3
2022-11-26T07:10:11.021Z,995.3
2022-11-26T07:24:41.135Z,995.5
2022-11-26T07:39:12.811Z,995.5
2022-11-26T07:53:43.043Z,995.8
2022-11-26T08:08:14.206Z,996.2
2022-11-26T08:22:44.045Z,996
2022-11-26T08:37:14.280Z,996.1
2022-11-26T08:51:45.469Z,996.1
2022-11-26T09:06:17.708Z,996
2022-11-26T09:20:57.570Z,996.1
2022-11-26T09:35:19.221Z,996.2
2022-11-26T09:49:49.372Z,996.2
2022-11-26T10:04:17.514Z,996.3
2022-11-26T10:18:48.972Z,996.4
2022-11-26T10:33:17.561Z,996.5
2022-11-26T10:47:48.240Z,996.4
2022-11-26T11:02:18.002Z,996.4
2022-11-26T11:16:47.500Z,996.4
2022-11-26T11:31:17.448Z,996.3
2022-11-26T11:45:53.829Z,996.1
2022-11-26T12:00:19.015Z,996.3
2022-11-26T12:14:48.032Z,996.3
2022-11-26T12:29:15.489Z,996.3
2022-11-26T12:43:45.761Z,996.4
2022-11-26T12:58:15.078Z,996.4
2022-11-26T13:12:46.048Z,996.5
2022-11-26T13:27:16.530Z,996.4
2022-11-26T13:41:46.388Z,996.6
2022-11-26T13:56:15.100Z,996.5
2022-11-26T14:10:45.172Z,996.3
2022-11-26T14:25:14.736Z,996.1
2022-11-26T14:39:43.719Z,996
2022-11-26T14:54:13.122Z,995.8
2022-11-26T15:08:44.203Z,995.9
2022-11-26T15:23:19.624Z,995.8
2022-11-26T15:37:48.304Z,995.8
2022-11-26T15:52:17.751Z,995.8
2022-11-26T16:06:47.144Z,995.9
2022-11-26T16:21:15.705Z,995.9
2022-11-26T16:35:47.455Z,996
2022-11-26T16:50:16.591Z,995.9
2022-11-26T17:04:47.193Z,995.9
2022-11-26T17:19:17.302Z,995.9
2022-11-26T17:33:47.510Z,996
2022-11-26T17:48:17.743Z,996
2022-11-26T18:02:48.070Z,996
2022-11-26T18:17:20.010Z,995.8
2022-11-26T18:31:48.776Z,995.7
2022-11-26T18:46:18.887Z,995.6
2022-11-26T19:00:49.450Z,995.3
2022-11-26T19:15:18.643Z,995.3
2022-11-26T19:29:47.901Z,995.4
2022-11-26T19:44:19.842Z,995.3
2022-11-26T19:58:48.340Z,995.5
2022-11-26T20:13:17.663Z,995.5
2022-11-26T20:27:47.261Z,995.3
2022-11-26T20:42:23.974Z,995.5
2022-11-26T20:56:51.893Z,995.5
2022-11-26T21:11:22.096Z,995.7
2022-11-26T21:25:51.820Z,995.7
2022-11-26T21:40:22.680Z,995.5
2022-11-26T21:54:53.546Z,995.6
2022-11-26T22:09:23.897Z,995.4
2022-11-26T22:23:53.815Z,995.2
2022-11-26T22:38:23.751Z,994.9
2022-11-26T22:52:53.762Z,994.7
2022-11-26T23:07:23.685Z,994.5
2022-11-26T23:21:53.752Z,994.5
2022-11-26T23:36:22.933Z,994.5
2022-11-26T23:50:51.688Z,994.2
